« Back
NWS Peachtree City, Ga » Text Product » ATL Terminal Aerodrome Forecast


Printer-friendly Version
Current Version              Previous Versions:   1  2  3  4  5  6  7  8  9  

Terminal Aerodrome Forecast

932
FTUS42 KFFC 171601 AAC
TAFATL
TAF AMD
KATL 171601Z 1716/1818 31011KT P6SM FEW015
     FM171800 31011KT P6SM FEW250
     FM180000 31007KT P6SM SCT250
     FM181400 33006KT P6SM BKN080=



USA.gov is the U.S. government's official web portal to all federal, state and local government web resources and services.